< Cyclone 196801 1968 Season Cyclone 196803 >
Cyclone 196802 (UNNAMED)
General InformationTrack Information on Google Maps || ResourceGoogle EarthGE AnimationAtom FeedGeoJSON
Detalied Best Track (Time Zone = UTC)
Year Month Day Hour Lat. Long. Pressure (hPa) Wind (kt) Class Image Chart
1967 12 6 05 -15.4 151.6 1005 0 0 -- --
1967 12 6 08 -15.6 151.0 1005 0 0 -- --
1967 12 6 11 -15.7 150.4 1005 0 0 -- --
1967 12 6 14 -15.9 149.7 1005 0 0 -- --
1967 12 6 17 -16.1 149.3 1005 0 0 -- --
1967 12 6 20 -16.4 149.2 1005 0 0 -- --
1967 12 6 23 -16.8 149.3 1005 0 0 -- --
1967 12 7 02 -16.7 149.8 1005 0 0 -- --
1967 12 7 05 -16.3 150.3 1003 0 0 -- --
1967 12 7 08 -16.3 150.6 1003 0 0 -- --
1967 12 7 11 -16.4 150.7 1003 0 0 -- --
1967 12 7 14 -16.9 150.8 1003 0 0 -- --
1967 12 7 17 -17.4 151.1 1003 0 0 -- --
1967 12 7 20 -18.1 151.6 1003 0 0 -- --
1967 12 7 23 -18.8 152.2 1003 0 0 -- --
1967 12 8 02 -19.6 152.8 1003 0 0 -- --
1967 12 8 05 -20.5 153.4 1003 0 0 -- --
1967 12 8 08 -21.6 153.9 1003 0 0 -- --
1967 12 8 11 -22.8 154.7 1002 0 0 -- --
1967 12 8 14 -24.2 155.4 1000 0 0 -- --
1967 12 8 17 -25.2 156.4 998 0 0 -- --
1967 12 8 20 -25.6 156.9 998 0 0 -- --
1967 12 8 23 -26.1 157.4 996 0 0 -- --
1967 12 9 02 -26.5 157.8 996 0 0 -- --
1967 12 9 05 -26.9 158.2 996 0 0 -- --
1967 12 9 08 -27.4 158.6 996 0 0 -- --
1967 12 9 11 -27.7 159.2 996 0 0 -- --
1967 12 9 14 -28.3 160.0 996 0 0 -- --
1967 12 9 17 -28.5 160.8 1000 0 0 -- --
1967 12 9 20 -28.6 161.8 1000 0 0 -- --
1967 12 9 23 -28.9 163.0 1000 0 0 -- --
1967 12 10 02 -29.2 164.0 1002 0 0 -- --
1967 12 10 05 -29.3 164.6 1004 0 0 -- --
1967 12 10 08 -28.8 164.9 1004 0 0 -- --
1967 12 10 11 -28.3 164.5 1006 0 0 -- --
1967 12 10 14 -28.0 164.1 1007 0 0 -- --
1967 12 10 17 -27.6 163.7 1007 0 0 -- --
1967 12 10 20 -27.3 163.3 1007 0 0 -- --
< Cyclone 196801 1968 Season Cyclone 196803 >

Help